Time,TemperatureF,DewpointF,PressureIn,WindDirection,WindDirectionDegrees,WindSpeedMPH,WindSpeedGustMPH,Humidity,HourlyPrecipIn,Conditions,Clouds,dailyrainin,SoftwareType,DateUTC
2013-05-17 00:05:00,49.7,47.0,29.95,SW,226,14.0,21.0,90,0.00,,,0.00,weatherlink.com 1.10,2013-05-17 07:05:00,
2013-05-17 00:20:00,49.3,47.0,29.94,West,279,13.0,19.0,91,0.00,,,0.00,weatherlink.com 1.10,2013-05-17 07:20:00,
2013-05-17 00:35:00,49.4,46.0,29.95,West,263,14.0,20.0,89,0.00,,,0.00,weatherlink.com 1.10,2013-05-17 07:35:00,
2013-05-17 00:50:00,49.3,46.0,29.95,WSW,248,15.0,20.0,89,0.00,,,0.00,weatherlink.com 1.10,2013-05-17 07:50:00,
2013-05-17 01:05:00,50.1,46.0,29.96,West,263,10.0,19.0,84,0.00,,,0.00,weatherlink.com 1.10,2013-05-17 08:05:00,
2013-05-17 01:20:00,50.4,45.0,29.95,West,277,6.0,14.0,81,0.00,,,0.00,weatherlink.com 1.10,2013-05-17 08:20:00,
2013-05-17 01:35:00,50.0,45.0,29.95,WSW,241,8.0,12.0,84,0.00,,,0.00,weatherlink.com 1.10,2013-05-17 08:35:00,
2013-05-17 01:51:00,48.5,46.0,29.95,West,263,10.0,12.0,92,0.00,,,0.00,weatherlink.com 1.10,2013-05-17 08:51:00,
2013-05-17 02:06:00,48.0,46.0,29.95,WSW,250,11.0,13.0,94,0.00,,,0.00,weatherlink.com 1.10,2013-05-17 09:06:00,
2013-05-17 02:21:00,47.3,47.0,29.94,WSW,255,11.0,12.0,97,0.00,,,0.00,weatherlink.com 1.10,2013-05-17 09:21:00,
2013-05-17 02:36:00,47.9,47.0,29.94,WSW,238,13.0,16.0,95,0.00,,,0.00,weatherlink.com 1.10,2013-05-17 09:36:00,
2013-05-17 02:51:00,48.5,46.0,29.94,West,278,10.0,16.0,91,0.00,,,0.00,weatherlink.com 1.10,2013-05-17 09:51:00,
2013-05-17 03:06:00,48.7,46.0,29.94,West,273,11.0,15.0,90,0.00,,,0.00,weatherlink.com 1.10,2013-05-17 10:06:00,
2013-05-17 03:21:00,48.1,47.0,29.94,WSW,257,13.0,16.0,94,0.00,,,0.00,weatherlink.com 1.10,2013-05-17 10:21:00,
2013-05-17 03:36:00,48.4,46.0,29.94,WSW,240,12.0,14.0,91,0.00,,,0.00,weatherlink.com 1.10,2013-05-17 10:36:00,
2013-05-17 03:51:00,48.3,46.0,29.94,WSW,250,11.0,14.0,92,0.00,,,0.00,weatherlink.com 1.10,2013-05-17 10:51:00,
2013-05-17 04:06:00,47.3,46.0,29.94,SW,229,12.0,14.0,95,0.00,,,0.00,weatherlink.com 1.10,2013-05-17 11:06:00,
2013-05-17 04:21:00,47.4,46.0,29.94,West,262,14.0,16.0,95,0.00,,,0.00,weatherlink.com 1.10,2013-05-17 11:21:00,
2013-05-17 04:36:00,47.1,46.0,29.94,WSW,252,12.0,14.0,96,0.00,,,0.00,weatherlink.com 1.10,2013-05-17 11:36:00,
2013-05-17 04:51:00,46.4,46.0,29.94,WSW,238,13.0,15.0,98,0.00,,,0.00,weatherlink.com 1.10,2013-05-17 11:51:00,
2013-05-17 05:06:00,46.2,46.0,29.94,WSW,246,13.0,17.0,99,0.00,,,0.00,weatherlink.com 1.10,2013-05-17 12:06:00,
2013-05-17 05:21:00,46.2,46.0,29.94,WSW,254,11.0,15.0,99,0.00,,,0.00,weatherlink.com 1.10,2013-05-17 12:21:00,
2013-05-17 05:36:00,46.2,46.0,29.94,WSW,240,12.0,15.0,99,0.00,,,0.00,weatherlink.com 1.10,2013-05-17 12:36:00,
2013-05-17 05:51:00,46.1,46.0,29.94,WSW,245,11.0,16.0,99,0.00,,,0.00,weatherlink.com 1.10,2013-05-17 12:51:00,
2013-05-17 06:06:00,45.9,46.0,29.94,WSW,245,12.0,14.0,99,0.00,,,0.00,weatherlink.com 1.10,2013-05-17 13:06:00,
2013-05-17 06:21:00,46.2,46.0,29.94,West,259,13.0,18.0,100,0.00,,,0.00,weatherlink.com 1.10,2013-05-17 13:21:00,
2013-05-17 06:36:00,46.5,46.0,29.95,WSW,250,13.0,17.0,99,0.00,,,0.00,weatherlink.com 1.10,2013-05-17 13:36:00,
2013-05-17 06:51:00,47.0,46.0,29.95,WSW,248,14.0,15.0,97,0.00,,,0.00,weatherlink.com 1.10,2013-05-17 13:51:00,
2013-05-17 07:06:00,46.7,46.0,29.95,WSW,253,14.0,17.0,98,0.00,,,0.00,weatherlink.com 1.10,2013-05-17 14:06:00,
2013-05-17 07:21:00,47.0,47.0,29.96,WSW,256,13.0,16.0,99,0.00,,,0.00,weatherlink.com 1.10,2013-05-17 14:21:00,
2013-05-17 07:36:00,47.2,47.0,29.97,WSW,252,12.0,18.0,99,0.00,,,0.00,weatherlink.com 1.10,2013-05-17 14:36:00,
2013-05-17 07:51:00,47.6,47.0,29.97,SW,235,12.0,15.0,99,0.00,,,0.00,weatherlink.com 1.10,2013-05-17 14:51:00,
2013-05-17 08:06:00,47.6,47.0,29.97,WSW,240,12.0,15.0,98,0.00,,,0.00,weatherlink.com 1.10,2013-05-17 15:06:00,
2013-05-17 08:21:00,48.5,48.0,29.98,WSW,257,4.0,8.0,96,0.00,,,0.00,weatherlink.com 1.10,2013-05-17 15:21:00,
2013-05-17 08:36:00,50.3,49.0,29.98,SSW,201,1.0,2.0,94,0.00,,,0.00,weatherlink.com 1.10,2013-05-17 15:36:00,
2013-05-17 08:51:00,51.6,49.0,29.98,SSW,210,1.0,4.0,91,0.00,,,0.00,weatherlink.com 1.10,2013-05-17 15:51:00,
2013-05-17 09:06:00,51.7,49.0,29.98,West,262,4.0,6.0,91,0.00,,,0.00,weatherlink.com 1.10,2013-05-17 16:06:00,
2013-05-17 09:21:00,51.6,49.0,29.98,SW,222,4.0,9.0,91,0.00,,,0.00,weatherlink.com 1.10,2013-05-17 16:21:00,
2013-05-17 09:36:00,52.2,49.0,29.99,SW,217,11.0,13.0,90,0.00,,,0.00,weatherlink.com 1.10,2013-05-17 16:36:00,
2013-05-17 09:52:00,53.1,50.0,29.98,West,270,7.0,11.0,89,0.00,,,0.00,weatherlink.com 1.10,2013-05-17 16:52:00,
2013-05-17 10:07:00,54.3,50.0,29.98,SW,225,6.0,14.0,86,0.00,,,0.00,weatherlink.com 1.10,2013-05-17 17:07:00,
2013-05-17 10:22:00,54.8,51.0,29.98,WSW,249,10.0,15.0,86,0.00,,,0.00,weatherlink.com 1.10,2013-05-17 17:22:00,
2013-05-17 10:37:00,54.6,50.0,29.99,SW,231,15.0,17.0,85,0.00,,,0.00,weatherlink.com 1.10,2013-05-17 17:37:00,
2013-05-17 10:52:00,53.9,50.0,29.99,WSW,249,21.0,22.0,86,0.00,,,0.00,weatherlink.com 1.10,2013-05-17 17:52:00,
2013-05-17 11:07:00,53.1,50.0,29.99,West,267,16.0,23.0,88,0.00,,,0.00,weatherlink.com 1.10,2013-05-17 18:07:00,
2013-05-17 11:22:00,53.9,51.0,29.99,WSW,243,11.0,23.0,88,0.00,,,0.00,weatherlink.com 1.10,2013-05-17 18:22:00,
2013-05-17 11:37:00,53.8,50.0,30.00,SSW,198,6.0,24.0,87,0.00,,,0.00,weatherlink.com 1.10,2013-05-17 18:37:00,
2013-05-17 11:52:00,53.9,51.0,30.00,SW,228,15.0,27.0,88,0.00,,,0.00,weatherlink.com 1.10,2013-05-17 18:52:00,
2013-05-17 12:07:00,54.7,51.0,30.00,WSW,238,17.0,25.0,87,0.00,,,0.00,weatherlink.com 1.10,2013-05-17 19:07:00,
2013-05-17 12:22:00,55.5,51.0,30.00,WSW,242,16.0,24.0,85,0.00,,,0.00,weatherlink.com 1.10,2013-05-17 19:22:00,
2013-05-17 12:37:00,54.2,51.0,30.00,SW,231,10.0,26.0,87,0.00,,,0.00,weatherlink.com 1.10,2013-05-17 19:37:00,
2013-05-17 12:52:00,54.3,51.0,30.00,WSW,240,17.0,27.0,88,0.00,,,0.00,weatherlink.com 1.10,2013-05-17 19:52:00,
2013-05-17 13:07:00,55.5,51.0,30.00,SW,229,19.0,24.0,86,0.00,,,0.00,weatherlink.com 1.10,2013-05-17 20:07:00,
2013-05-17 13:22:00,56.9,52.0,30.00,SW,221,11.0,27.0,83,0.00,,,0.00,weatherlink.com 1.10,2013-05-17 20:22:00,
2013-05-17 13:37:00,56.7,52.0,30.00,WSW,254,23.0,28.0,83,0.00,,,0.00,weatherlink.com 1.10,2013-05-17 20:37:00,
2013-05-17 13:52:00,56.6,51.0,30.00,WSW,242,25.0,26.0,81,0.00,,,0.00,weatherlink.com 1.10,2013-05-17 20:52:00,
2013-05-17 14:07:00,56.6,51.0,30.00,SW,224,25.0,30.0,80,0.00,,,0.00,weatherlink.com 1.10,2013-05-17 21:07:00,
2013-05-17 14:22:00,56.9,50.0,30.00,West,276,19.0,28.0,78,0.00,,,0.00,weatherlink.com 1.10,2013-05-17 21:22:00,
2013-05-17 14:37:00,57.2,50.0,30.00,WSW,238,19.0,31.0,76,0.00,,,0.00,weatherlink.com 1.10,2013-05-17 21:37:00,
2013-05-17 14:52:00,56.9,49.0,30.00,WSW,252,18.0,34.0,74,0.00,,,0.00,weatherlink.com 1.10,2013-05-17 21:52:00,
2013-05-17 15:07:00,56.5,49.0,30.00,WSW,245,23.0,30.0,75,0.00,,,0.00,weatherlink.com 1.10,2013-05-17 22:07:00,
2013-05-17 15:22:00,56.4,48.0,30.00,WSW,253,26.0,32.0,74,0.00,,,0.00,weatherlink.com 1.10,2013-05-17 22:22:00,
2013-05-17 15:37:00,56.3,49.0,30.00,SW,222,22.0,31.0,76,0.00,,,0.00,weatherlink.com 1.10,2013-05-17 22:37:00,
2013-05-17 15:52:00,56.1,49.0,29.99,WSW,245,31.0,33.0,78,0.00,,,0.00,weatherlink.com 1.10,2013-05-17 22:52:00,
2013-05-17 16:07:00,55.2,49.0,29.99,SW,231,30.0,32.0,80,0.00,,,0.00,weatherlink.com 1.10,2013-05-17 23:07:00,
2013-05-17 16:22:00,54.7,49.0,29.99,SW,233,28.0,33.0,82,0.00,,,0.00,weatherlink.com 1.10,2013-05-17 23:22:00,
2013-05-17 16:37:00,54.6,49.0,29.99,West,269,23.0,33.0,82,0.00,,,0.00,weatherlink.com 1.10,2013-05-17 23:37:00,
2013-05-17 16:52:00,54.3,49.0,29.99,WSW,253,24.0,33.0,82,0.00,,,0.00,weatherlink.com 1.10,2013-05-17 23:52:00,
2013-05-17 17:07:00,54.0,49.0,29.99,SW,228,19.0,29.0,82,0.00,,,0.00,weatherlink.com 1.10,2013-05-18 00:07:00,
2013-05-17 17:22:00,54.1,48.0,29.99,WSW,238,29.0,31.0,80,0.00,,,0.00,weatherlink.com 1.10,2013-05-18 00:22:00,
2013-05-17 17:37:00,53.4,47.0,29.99,SW,222,21.0,33.0,80,0.00,,,0.00,weatherlink.com 1.10,2013-05-18 00:37:00,
2013-05-17 17:52:00,52.9,48.0,29.99,SW,222,21.0,33.0,82,0.00,,,0.00,weatherlink.com 1.10,2013-05-18 00:52:00,
2013-05-17 18:07:00,52.5,48.0,29.99,SW,226,21.0,32.0,83,0.00,,,0.00,weatherlink.com 1.10,2013-05-18 01:07:00,
2013-05-17 18:22:00,52.4,47.0,29.99,SW,225,21.0,30.0,83,0.00,,,0.00,weatherlink.com 1.10,2013-05-18 01:22:00,
2013-05-17 18:37:00,52.3,47.0,29.99,WSW,254,17.0,28.0,83,0.00,,,0.00,weatherlink.com 1.10,2013-05-18 01:37:00,
2013-05-17 18:52:00,52.0,47.0,30.00,SW,225,18.0,24.0,84,0.00,,,0.00,weatherlink.com 1.10,2013-05-18 01:52:00,
2013-05-17 19:07:00,51.5,48.0,30.00,SW,231,20.0,24.0,86,0.00,,,0.00,weatherlink.com 1.10,2013-05-18 02:07:00,
2013-05-17 19:22:00,51.0,47.0,30.00,WSW,247,18.0,23.0,87,0.00,,,0.00,weatherlink.com 1.10,2013-05-18 02:22:00,
2013-05-17 19:37:00,50.1,47.0,30.01,WSW,246,20.0,23.0,88,0.00,,,0.00,weatherlink.com 1.10,2013-05-18 02:37:00,
2013-05-17 19:52:00,49.3,46.0,30.00,WSW,245,23.0,25.0,89,0.00,,,0.00,weatherlink.com 1.10,2013-05-18 02:52:00,
2013-05-17 20:07:00,48.7,46.0,30.01,WSW,250,25.0,25.0,91,0.00,,,0.00,weatherlink.com 1.10,2013-05-18 03:07:00,
2013-05-17 20:22:00,48.1,46.0,30.01,WSW,240,17.0,23.0,92,0.00,,,0.00,weatherlink.com 1.10,2013-05-18 03:22:00,
2013-05-17 20:37:00,47.8,46.0,30.02,WSW,248,16.0,21.0,94,0.00,,,0.00,weatherlink.com 1.10,2013-05-18 03:37:00,
2013-05-17 20:52:00,47.5,46.0,30.02,WSW,249,16.0,21.0,94,0.00,,,0.00,weatherlink.com 1.10,2013-05-18 03:52:00,
2013-05-17 21:07:00,47.3,46.0,30.02,West,262,16.0,21.0,95,0.00,,,0.00,weatherlink.com 1.10,2013-05-18 04:07:00,
2013-05-17 21:22:00,47.2,46.0,30.02,West,265,13.0,18.0,95,0.00,,,0.00,weatherlink.com 1.10,2013-05-18 04:22:00,
2013-05-17 21:37:00,47.2,46.0,30.03,WSW,246,14.0,15.0,95,0.00,,,0.00,weatherlink.com 1.10,2013-05-18 04:37:00,
2013-05-17 21:52:00,47.2,46.0,30.03,WSW,249,14.0,17.0,96,0.00,,,0.00,weatherlink.com 1.10,2013-05-18 04:52:00,
2013-05-17 22:07:00,47.1,46.0,30.03,SW,233,17.0,19.0,96,0.00,,,0.00,weatherlink.com 1.10,2013-05-18 05:07:00,
2013-05-17 22:22:00,46.9,46.0,30.03,WSW,250,17.0,21.0,97,0.00,,,0.00,weatherlink.com 1.10,2013-05-18 05:22:00,
2013-05-17 22:38:00,46.8,46.0,30.03,SW,228,16.0,21.0,97,0.00,,,0.00,weatherlink.com 1.10,2013-05-18 05:38:00,
2013-05-17 22:53:00,46.8,46.0,30.03,WSW,246,16.0,19.0,97,0.00,,,0.00,weatherlink.com 1.10,2013-05-18 05:53:00,
2013-05-17 23:08:00,46.7,46.0,30.03,WSW,245,14.0,19.0,98,0.00,,,0.00,weatherlink.com 1.10,2013-05-18 06:08:00,
2013-05-17 23:23:00,46.8,46.0,30.03,WSW,253,14.0,17.0,98,0.00,,,0.00,weatherlink.com 1.10,2013-05-18 06:23:00,
2013-05-17 23:38:00,47.3,47.0,30.04,WSW,255,9.0,20.0,97,0.00,,,0.00,weatherlink.com 1.10,2013-05-18 06:38:00,
2013-05-17 23:53:00,46.8,46.0,30.03,SW,231,12.0,13.0,97,0.00,,,0.00,weatherlink.com 1.10,2013-05-18 06:53:00,